プーケット の空港の天気 - METARとTAF

プーケット国際空港 ( VTSP / HKT ) - タイ プーケット県
飛行場実況気象(Metar)
観測時間04/27 13:30 +07 (04/27 06:30 UTC)
風向・風速西北西 8m/s
視程8000m
天気現象
少しの雲 雲底高度 550m
全天の4割程度の雲 雲底高度 610m
気温32℃
湿度67%
気圧1011hPa
METARVTSP 270630Z 29015KT 8000 FEW018CB SCT020 32/25 Q1011 NOSIG
過去の天気等 Google飛行場航空写真 Wunderground天気予報

過去48時間のMETAR

飛行場予報(TAF)
発表時間: 4/27 12:00 +07 (4/27 05:00 UTC)
予報対象時間: 27日13時 +07 ~ 28日19時 +07
風向・風速西北西 5m/s
視程8,000m
少しの雲 雲底高度 610m
全天の4割程度の雲 雲底高度 3,050m
27日19時 +07 ~ 27日23時 +07 に 確率 30% で一時的に
風向・風速不定 5m/s 瞬間風速 10m/s
視程3,000m
天気現象雷雨
少しの積乱雲 雲底高度 490m
全天の4割程度の雲 雲底高度 610m
全天の8割程度の雲 雲底高度 3,050m
27日23時 +07 ~ 28日1時 +07 に徐々に
風向・風速静穏
28日7時 +07 ~ 28日9時 +07 に徐々に
風向・風速西 5m/s
TAF VTSP 270500Z 2706/2812 29010KT 8000 FEW020 SCT100
PROB30 TEMPO 2712/2716 VRB10G20KT 3000 TSRA FEW016CB SCT020 BKN100
BECMG 2716/2718 00000KT
BECMG 2800/2802 28010KT